sensor_id;sensor_type;location;lat;lon;timestamp;pressure;altitude;pressure_sealevel;temperature;humidity
68822;BME280;55834;50.870;4.606;2024-03-02T00:00:54;99181.72;;;5.57;61.39
68822;BME280;55834;50.870;4.606;2024-03-02T00:03:20;99175.72;;;6.05;61.90
68822;BME280;55834;50.870;4.606;2024-03-02T00:05:49;99172.38;;;6.25;60.65
68822;BME280;55834;50.870;4.606;2024-03-02T00:08:22;99155.19;;;6.18;59.16
68822;BME280;55834;50.870;4.606;2024-03-02T00:10:49;99175.72;;;5.80;60.54
68822;BME280;55834;50.870;4.606;2024-03-02T00:13:14;99186.41;;;5.74;60.90
68822;BME280;55834;50.870;4.606;2024-03-02T00:15:47;99184.34;;;5.29;61.16
68822;BME280;55834;50.870;4.606;2024-03-02T00:18:19;99181.72;;;5.29;62.32
68822;BME280;55834;50.870;4.606;2024-03-02T00:20:45;99177.47;;;5.79;61.19
68822;BME280;55834;50.870;4.606;2024-03-02T00:23:14;99180.44;;;5.14;61.85
68822;BME280;55834;50.870;4.606;2024-03-02T00:25:42;99192.31;;;5.52;62.05
68822;BME280;55834;50.870;4.606;2024-03-02T00:28:14;99181.66;;;5.02;63.47
68822;BME280;55834;50.870;4.606;2024-03-02T00:30:58;99191.09;;;4.47;63.74
68822;BME280;55834;50.870;4.606;2024-03-02T00:33:26;99198.38;;;4.67;63.60
68822;BME280;55834;50.870;4.606;2024-03-02T00:35:52;99194.97;;;4.63;63.34
68822;BME280;55834;50.870;4.606;2024-03-02T00:38:17;99194.63;;;5.05;62.89
68822;BME280;55834;50.870;4.606;2024-03-02T00:40:44;99198.75;;;4.84;62.48
68822;BME280;55834;50.870;4.606;2024-03-02T00:43:44;99204.38;;;5.00;62.78
68822;BME280;55834;50.870;4.606;2024-03-02T00:46:11;99196.53;;;5.00;61.80
68822;BME280;55834;50.870;4.606;2024-03-02T00:48:38;99184.22;;;5.60;61.35
68822;BME280;55834;50.870;4.606;2024-03-02T00:51:04;99188.63;;;5.31;60.92
68822;BME280;55834;50.870;4.606;2024-03-02T00:53:31;99191.75;;;5.14;61.45
68822;BME280;55834;50.870;4.606;2024-03-02T00:55:58;99193.03;;;5.57;60.62
68822;BME280;55834;50.870;4.606;2024-03-02T00:58:25;99224.31;;;5.62;61.65
68822;BME280;55834;50.870;4.606;2024-03-02T01:00:50;99222.25;;;5.15;61.75
68822;BME280;55834;50.870;4.606;2024-03-02T01:03:15;99199.22;;;5.55;61.32
68822;BME280;55834;50.870;4.606;2024-03-02T01:05:44;99185.38;;;5.78;59.53
68822;BME280;55834;50.870;4.606;2024-03-02T01:08:10;99204.56;;;5.78;58.98
68822;BME280;55834;50.870;4.606;2024-03-02T01:10:35;99223.28;;;5.66;60.16
68822;BME280;55834;50.870;4.606;2024-03-02T01:13:01;99199.53;;;4.86;62.32
68822;BME280;55834;50.870;4.606;2024-03-02T01:15:26;99210.13;;;5.41;61.56
68822;BME280;55834;50.870;4.606;2024-03-02T01:17:51;99223.81;;;5.21;61.35
68822;BME280;55834;50.870;4.606;2024-03-02T01:20:17;99220.28;;;5.50;62.05
68822;BME280;55834;50.870;4.606;2024-03-02T01:22:42;99225.91;;;5.38;61.65
68822;BME280;55834;50.870;4.606;2024-03-02T01:25:09;99228.75;;;5.86;60.16
68822;BME280;55834;50.870;4.606;2024-03-02T01:27:34;99229.38;;;5.93;59.34
68822;BME280;55834;50.870;4.606;2024-03-02T01:29:59;99225.13;;;5.08;61.41
68822;BME280;55834;50.870;4.606;2024-03-02T01:32:25;99219.44;;;5.50;60.36
68822;BME280;55834;50.870;4.606;2024-03-02T01:34:51;99229.78;;;5.54;59.54
68822;BME280;55834;50.870;4.606;2024-03-02T01:37:16;99234.28;;;4.60;61.84
68822;BME280;55834;50.870;4.606;2024-03-02T01:39:41;99221.13;;;4.63;62.47
68822;BME280;55834;50.870;4.606;2024-03-02T01:42:07;99216.41;;;5.35;61.11
68822;BME280;55834;50.870;4.606;2024-03-02T01:44:32;99229.47;;;5.37;59.81
68822;BME280;55834;50.870;4.606;2024-03-02T01:46:58;99230.47;;;4.72;62.00
68822;BME280;55834;50.870;4.606;2024-03-02T01:49:23;99240.34;;;5.23;60.59
68822;BME280;55834;50.870;4.606;2024-03-02T01:51:49;99230.72;;;4.94;61.30
68822;BME280;55834;50.870;4.606;2024-03-02T01:54:14;99233.72;;;5.11;60.05
68822;BME280;55834;50.870;4.606;2024-03-02T01:56:39;99228.31;;;4.86;60.37
68822;BME280;55834;50.870;4.606;2024-03-02T01:59:06;99230.88;;;5.19;59.43
68822;BME280;55834;50.870;4.606;2024-03-02T02:01:31;99240.13;;;5.31;60.01
68822;BME280;55834;50.870;4.606;2024-03-02T02:03:56;99231.06;;;5.69;59.33
68822;BME280;55834;50.870;4.606;2024-03-02T02:06:22;99236.88;;;5.51;59.50
68822;BME280;55834;50.870;4.606;2024-03-02T02:08:47;99233.03;;;5.62;58.52
68822;BME280;55834;50.870;4.606;2024-03-02T02:11:16;99232.63;;;5.75;57.61
68822;BME280;55834;50.870;4.606;2024-03-02T02:13:42;99230.44;;;5.61;58.42
68822;BME280;55834;50.870;4.606;2024-03-02T02:16:08;99236.06;;;5.77;57.95
68822;BME280;55834;50.870;4.606;2024-03-02T02:18:34;99230.06;;;5.45;57.66
68822;BME280;55834;50.870;4.606;2024-03-02T02:20:59;99235.00;;;4.96;58.55
68822;BME280;55834;50.870;4.606;2024-03-02T02:23:25;99234.63;;;5.66;58.77
68822;BME280;55834;50.870;4.606;2024-03-02T02:25:50;99230.28;;;5.92;57.96
68822;BME280;55834;50.870;4.606;2024-03-02T02:28:15;99225.25;;;5.31;57.83
68822;BME280;55834;50.870;4.606;2024-03-02T02:30:41;99227.78;;;5.34;58.80
68822;BME280;55834;50.870;4.606;2024-03-02T02:33:06;99226.63;;;5.71;58.23
68822;BME280;55834;50.870;4.606;2024-03-02T02:35:31;99225.47;;;5.25;58.24
68822;BME280;55834;50.870;4.606;2024-03-02T02:37:58;99219.94;;;5.89;57.96
68822;BME280;55834;50.870;4.606;2024-03-02T02:40:26;99223.44;;;6.15;56.66
68822;BME280;55834;50.870;4.606;2024-03-02T02:42:54;99226.41;;;6.04;55.76
68822;BME280;55834;50.870;4.606;2024-03-02T02:45:19;99221.31;;;6.26;56.26
68822;BME280;55834;50.870;4.606;2024-03-02T02:47:45;99213.84;;;5.88;55.99
68822;BME280;55834;50.870;4.606;2024-03-02T02:50:12;99221.66;;;5.07;57.77
68822;BME280;55834;50.870;4.606;2024-03-02T02:52:38;99218.88;;;5.68;57.73
68822;BME280;55834;50.870;4.606;2024-03-02T02:55:07;99213.78;;;5.63;57.74
68822;BME280;55834;50.870;4.606;2024-03-02T02:57:33;99214.81;;;5.84;57.09
68822;BME280;55834;50.870;4.606;2024-03-02T03:00:10;99212.72;;;5.96;57.39
68822;BME280;55834;50.870;4.606;2024-03-02T03:02:42;99219.34;;;5.53;56.57
68822;BME280;55834;50.870;4.606;2024-03-02T03:05:10;99217.25;;;5.08;57.75
68822;BME280;55834;50.870;4.606;2024-03-02T03:07:36;99212.69;;;5.71;58.31
68822;BME280;55834;50.870;4.606;2024-03-02T03:10:03;99198.16;;;5.60;56.84
68822;BME280;55834;50.870;4.606;2024-03-02T03:12:30;99208.38;;;5.95;56.02
68822;BME280;55834;50.870;4.606;2024-03-02T03:14:56;99204.22;;;5.89;56.79
68822;BME280;55834;50.870;4.606;2024-03-02T03:17:21;99199.78;;;5.91;56.07
68822;BME280;55834;50.870;4.606;2024-03-02T03:19:47;99199.72;;;5.93;55.75
68822;BME280;55834;50.870;4.606;2024-03-02T03:22:13;99198.03;;;5.65;55.33
68822;BME280;55834;50.870;4.606;2024-03-02T03:24:38;99192.63;;;5.70;56.43
68822;BME280;55834;50.870;4.606;2024-03-02T03:27:04;99199.31;;;5.78;55.69
68822;BME280;55834;50.870;4.606;2024-03-02T03:29:29;99203.59;;;5.81;56.38
68822;BME280;55834;50.870;4.606;2024-03-02T03:31:55;99201.53;;;5.91;55.92
68822;BME280;55834;50.870;4.606;2024-03-02T03:34:20;99197.66;;;5.76;55.43
68822;BME280;55834;50.870;4.606;2024-03-02T03:36:45;99200.94;;;5.82;55.46
68822;BME280;55834;50.870;4.606;2024-03-02T03:39:11;99194.44;;;5.68;55.64
68822;BME280;55834;50.870;4.606;2024-03-02T03:41:36;99194.38;;;5.69;55.88
68822;BME280;55834;50.870;4.606;2024-03-02T03:44:02;99195.00;;;5.77;56.06
68822;BME280;55834;50.870;4.606;2024-03-02T03:46:29;99194.78;;;5.83;55.35
68822;BME280;55834;50.870;4.606;2024-03-02T03:48:54;99195.09;;;5.74;55.47
68822;BME280;55834;50.870;4.606;2024-03-02T03:51:21;99204.34;;;5.84;55.52
68822;BME280;55834;50.870;4.606;2024-03-02T03:53:48;99208.72;;;5.84;55.56
68822;BME280;55834;50.870;4.606;2024-03-02T03:56:13;99203.06;;;5.96;55.97
68822;BME280;55834;50.870;4.606;2024-03-02T03:58:38;99205.97;;;5.88;55.36
68822;BME280;55834;50.870;4.606;2024-03-02T04:01:04;99201.72;;;5.84;55.66
68822;BME280;55834;50.870;4.606;2024-03-02T04:03:29;99211.22;;;5.62;55.17
68822;BME280;55834;50.870;4.606;2024-03-02T04:05:55;99213.13;;;5.57;56.23
68822;BME280;55834;50.870;4.606;2024-03-02T04:08:21;99204.22;;;5.62;56.52
68822;BME280;55834;50.870;4.606;2024-03-02T04:10:46;99206.97;;;5.84;56.48
68822;BME280;55834;50.870;4.606;2024-03-02T04:13:11;99208.41;;;5.93;55.87
68822;BME280;55834;50.870;4.606;2024-03-02T04:15:37;99210.28;;;5.89;54.92
68822;BME280;55834;50.870;4.606;2024-03-02T04:18:03;99211.75;;;5.98;54.91
68822;BME280;55834;50.870;4.606;2024-03-02T04:20:28;99211.81;;;5.97;54.21
68822;BME280;55834;50.870;4.606;2024-03-02T04:22:54;99210.78;;;6.01;54.61
68822;BME280;55834;50.870;4.606;2024-03-02T04:25:20;99209.28;;;5.94;54.35
68822;BME280;55834;50.870;4.606;2024-03-02T04:27:45;99209.09;;;6.00;54.86
68822;BME280;55834;50.870;4.606;2024-03-02T04:30:11;99213.31;;;6.04;54.96
68822;BME280;55834;50.870;4.606;2024-03-02T04:32:36;99213.56;;;5.96;54.09
68822;BME280;55834;50.870;4.606;2024-03-02T04:35:03;99225.72;;;5.72;54.74
68822;BME280;55834;50.870;4.606;2024-03-02T04:37:29;99230.34;;;5.64;54.89
68822;BME280;55834;50.870;4.606;2024-03-02T04:39:54;99229.94;;;5.76;55.32
68822;BME280;55834;50.870;4.606;2024-03-02T04:42:19;99236.09;;;5.75;54.84
68822;BME280;55834;50.870;4.606;2024-03-02T04:44:45;99237.50;;;5.85;55.10
68822;BME280;55834;50.870;4.606;2024-03-02T04:47:10;99243.75;;;5.81;53.90
68822;BME280;55834;50.870;4.606;2024-03-02T04:49:36;99235.97;;;5.78;54.67
68822;BME280;55834;50.870;4.606;2024-03-02T04:52:01;99240.34;;;5.79;54.64
68822;BME280;55834;50.870;4.606;2024-03-02T04:54:27;99249.91;;;5.80;54.08
68822;BME280;55834;50.870;4.606;2024-03-02T04:56:52;99247.63;;;5.70;54.93
68822;BME280;55834;50.870;4.606;2024-03-02T04:59:18;99252.41;;;5.57;54.59
68822;BME280;55834;50.870;4.606;2024-03-02T05:01:44;99257.72;;;5.54;54.96
68822;BME280;55834;50.870;4.606;2024-03-02T05:04:10;99262.97;;;5.24;54.78
68822;BME280;55834;50.870;4.606;2024-03-02T05:06:39;99258.38;;;5.32;55.87
68822;BME280;55834;50.870;4.606;2024-03-02T05:09:05;99257.72;;;5.26;56.26
68822;BME280;55834;50.870;4.606;2024-03-02T05:11:31;99260.03;;;5.35;56.80
68822;BME280;55834;50.870;4.606;2024-03-02T05:14:02;99270.22;;;5.44;56.15
68822;BME280;55834;50.870;4.606;2024-03-02T05:16:28;99258.50;;;5.56;55.91
68822;BME280;55834;50.870;4.606;2024-03-02T05:18:53;99259.56;;;5.50;55.40
68822;BME280;55834;50.870;4.606;2024-03-02T05:21:18;99265.06;;;5.42;55.51
68822;BME280;55834;50.870;4.606;2024-03-02T05:23:44;99257.50;;;5.33;55.53
68822;BME280;55834;50.870;4.606;2024-03-02T05:26:09;99257.97;;;5.46;56.00
68822;BME280;55834;50.870;4.606;2024-03-02T05:28:38;99261.31;;;5.50;55.66
68822;BME280;55834;50.870;4.606;2024-03-02T05:31:03;99269.91;;;5.55;55.45
68822;BME280;55834;50.870;4.606;2024-03-02T05:33:29;99262.88;;;5.57;55.03
68822;BME280;55834;50.870;4.606;2024-03-02T05:35:56;99268.13;;;5.55;55.36
68822;BME280;55834;50.870;4.606;2024-03-02T05:38:21;99267.41;;;5.50;54.45
68822;BME280;55834;50.870;4.606;2024-03-02T05:40:47;99266.63;;;5.48;54.81
68822;BME280;55834;50.870;4.606;2024-03-02T05:43:12;99271.47;;;5.32;55.76
68822;BME280;55834;50.870;4.606;2024-03-02T05:45:37;99268.63;;;5.40;55.75
68822;BME280;55834;50.870;4.606;2024-03-02T05:48:03;99276.38;;;5.43;55.35
68822;BME280;55834;50.870;4.606;2024-03-02T05:50:28;99265.00;;;5.44;55.21
68822;BME280;55834;50.870;4.606;2024-03-02T05:52:54;99272.91;;;5.42;54.71
68822;BME280;55834;50.870;4.606;2024-03-02T05:55:21;99265.38;;;5.32;54.98
68822;BME280;55834;50.870;4.606;2024-03-02T05:57:47;99266.56;;;5.22;54.93
68822;BME280;55834;50.870;4.606;2024-03-02T06:00:24;99267.16;;;5.30;55.65
68822;BME280;55834;50.870;4.606;2024-03-02T06:02:50;99273.44;;;5.24;54.50
68822;BME280;55834;50.870;4.606;2024-03-02T06:05:15;99269.69;;;5.33;55.60
68822;BME280;55834;50.870;4.606;2024-03-02T06:07:42;99272.03;;;5.12;55.12
68822;BME280;55834;50.870;4.606;2024-03-02T06:10:08;99272.78;;;5.17;55.21
68822;BME280;55834;50.870;4.606;2024-03-02T06:12:34;99280.28;;;4.98;55.52
68822;BME280;55834;50.870;4.606;2024-03-02T06:14:59;99276.38;;;4.82;55.94
68822;BME280;55834;50.870;4.606;2024-03-02T06:17:25;99283.19;;;4.88;56.52
68822;BME280;55834;50.870;4.606;2024-03-02T06:19:50;99281.81;;;5.06;56.58
68822;BME280;55834;50.870;4.606;2024-03-02T06:22:15;99291.38;;;5.07;55.49
68822;BME280;55834;50.870;4.606;2024-03-02T06:24:41;99287.31;;;4.96;55.98
68822;BME280;55834;50.870;4.606;2024-03-02T06:27:06;99286.97;;;4.78;56.40
68822;BME280;55834;50.870;4.606;2024-03-02T06:29:35;99290.75;;;4.66;56.33
68822;BME280;55834;50.870;4.606;2024-03-02T06:32:00;99287.34;;;4.95;56.74
68822;BME280;55834;50.870;4.606;2024-03-02T06:34:25;99282.03;;;4.98;55.88
68822;BME280;55834;50.870;4.606;2024-03-02T06:36:51;99289.59;;;5.09;55.67
68822;BME280;55834;50.870;4.606;2024-03-02T06:39:17;99291.16;;;5.16;55.25
68822;BME280;55834;50.870;4.606;2024-03-02T06:41:42;99291.16;;;5.16;55.16
68822;BME280;55834;50.870;4.606;2024-03-02T06:44:08;99287.22;;;4.99;54.57
68822;BME280;55834;50.870;4.606;2024-03-02T06:46:33;99287.97;;;5.03;55.32
68822;BME280;55834;50.870;4.606;2024-03-02T06:48:59;99286.88;;;5.12;55.54
68822;BME280;55834;50.870;4.606;2024-03-02T06:51:24;99288.66;;;5.11;55.09
68822;BME280;55834;50.870;4.606;2024-03-02T06:53:49;99296.13;;;5.25;55.49
68822;BME280;55834;50.870;4.606;2024-03-02T06:56:15;99300.31;;;5.31;55.14
68822;BME280;55834;50.870;4.606;2024-03-02T06:58:40;99299.66;;;4.91;54.67
68822;BME280;55834;50.870;4.606;2024-03-02T07:01:06;99293.41;;;4.97;55.78
68822;BME280;55834;50.870;4.606;2024-03-02T07:03:31;99291.31;;;5.10;55.63
68822;BME280;55834;50.870;4.606;2024-03-02T07:05:57;99294.88;;;5.06;55.31
68822;BME280;55834;50.870;4.606;2024-03-02T07:08:23;99309.22;;;5.24;55.52
68822;BME280;55834;50.870;4.606;2024-03-02T07:10:48;99303.66;;;5.36;55.56
68822;BME280;55834;50.870;4.606;2024-03-02T07:13:14;99310.41;;;5.43;54.55
68822;BME280;55834;50.870;4.606;2024-03-02T07:15:40;99302.66;;;5.40;54.22
68822;BME280;55834;50.870;4.606;2024-03-02T07:18:24;99307.50;;;5.52;55.02
68822;BME280;55834;50.870;4.606;2024-03-02T07:20:50;99308.66;;;5.72;55.06
68822;BME280;55834;50.870;4.606;2024-03-02T07:23:15;99313.50;;;5.56;54.91
68822;BME280;55834;50.870;4.606;2024-03-02T07:25:41;99323.53;;;5.71;55.01
68822;BME280;55834;50.870;4.606;2024-03-02T07:28:06;99313.72;;;5.76;54.33
68822;BME280;55834;50.870;4.606;2024-03-02T07:30:32;99310.97;;;5.81;54.50
68822;BME280;55834;50.870;4.606;2024-03-02T07:32:58;99314.13;;;5.92;53.92
68822;BME280;55834;50.870;4.606;2024-03-02T07:35:24;99309.38;;;5.77;55.40
68822;BME280;55834;50.870;4.606;2024-03-02T07:37:53;99306.59;;;6.08;54.41
68822;BME280;55834;50.870;4.606;2024-03-02T07:40:19;99305.44;;;5.90;54.19
68822;BME280;55834;50.870;4.606;2024-03-02T07:42:45;99305.66;;;6.10;54.59
68822;BME280;55834;50.870;4.606;2024-03-02T07:45:10;99304.91;;;6.33;54.23
68822;BME280;55834;50.870;4.606;2024-03-02T07:47:36;99302.47;;;6.27;55.07
68822;BME280;55834;50.870;4.606;2024-03-02T07:50:02;99303.31;;;6.54;54.13
68822;BME280;55834;50.870;4.606;2024-03-02T07:52:28;99300.22;;;6.43;53.70
68822;BME280;55834;50.870;4.606;2024-03-02T07:54:53;99296.66;;;6.71;54.18
68822;BME280;55834;50.870;4.606;2024-03-02T07:57:19;99289.94;;;6.87;53.26
68822;BME280;55834;50.870;4.606;2024-03-02T07:59:44;99295.09;;;6.90;53.19
68822;BME280;55834;50.870;4.606;2024-03-02T08:02:10;99287.34;;;7.11;52.87
68822;BME280;55834;50.870;4.606;2024-03-02T08:04:36;99292.09;;;7.01;52.70
68822;BME280;55834;50.870;4.606;2024-03-02T08:07:02;99291.31;;;7.21;52.61
68822;BME280;55834;50.870;4.606;2024-03-02T08:09:28;99296.91;;;7.12;52.70
68822;BME280;55834;50.870;4.606;2024-03-02T08:11:53;99304.78;;;7.35;51.62
68822;BME280;55834;50.870;4.606;2024-03-02T08:14:18;99310.09;;;7.10;52.06
68822;BME280;55834;50.870;4.606;2024-03-02T08:16:45;99310.56;;;7.21;51.79
68822;BME280;55834;50.870;4.606;2024-03-02T08:19:10;99326.13;;;7.50;51.73
68822;BME280;55834;50.870;4.606;2024-03-02T08:21:36;99337.84;;;7.64;51.32
68822;BME280;55834;50.870;4.606;2024-03-02T08:24:02;99328.91;;;7.68;51.04
68822;BME280;55834;50.870;4.606;2024-03-02T08:26:27;99321.13;;;7.87;50.33
68822;BME280;55834;50.870;4.606;2024-03-02T08:28:55;99316.88;;;7.63;49.76
68822;BME280;55834;50.870;4.606;2024-03-02T08:31:20;99320.72;;;7.76;51.39
68822;BME280;55834;50.870;4.606;2024-03-02T08:33:46;99324.81;;;7.83;51.20
68822;BME280;55834;50.870;4.606;2024-03-02T08:36:11;99325.78;;;7.81;51.06
68822;BME280;55834;50.870;4.606;2024-03-02T08:38:37;99329.88;;;7.66;49.96
68822;BME280;55834;50.870;4.606;2024-03-02T08:41:02;99329.06;;;7.18;52.58
68822;BME280;55834;50.870;4.606;2024-03-02T08:43:28;99323.75;;;7.87;51.98
68822;BME280;55834;50.870;4.606;2024-03-02T08:45:54;99330.47;;;8.18;51.15
68822;BME280;55834;50.870;4.606;2024-03-02T08:48:19;99337.16;;;8.03;50.95
68822;BME280;55834;50.870;4.606;2024-03-02T08:50:46;99332.97;;;7.76;50.75
68822;BME280;55834;50.870;4.606;2024-03-02T08:53:11;99342.53;;;8.00;51.07
68822;BME280;55834;50.870;4.606;2024-03-02T08:55:36;99341.50;;;7.37;50.43
68822;BME280;55834;50.870;4.606;2024-03-02T08:58:02;99344.78;;;7.65;50.98
68822;BME280;55834;50.870;4.606;2024-03-02T09:00:28;99341.25;;;7.88;51.36
68822;BME280;55834;50.870;4.606;2024-03-02T09:02:54;99340.81;;;7.77;50.53
68822;BME280;55834;50.870;4.606;2024-03-02T09:05:19;99342.84;;;7.00;52.23
68822;BME280;55834;50.870;4.606;2024-03-02T09:07:53;99339.44;;;7.21;52.37
68822;BME280;55834;50.870;4.606;2024-03-02T09:10:21;99342.78;;;7.49;51.85
68822;BME280;55834;50.870;4.606;2024-03-02T09:12:50;99337.31;;;7.08;51.64
68822;BME280;55834;50.870;4.606;2024-03-02T09:15:18;99340.41;;;7.19;53.36
68822;BME280;55834;50.870;4.606;2024-03-02T09:17:46;99339.34;;;7.70;50.65
68822;BME280;55834;50.870;4.606;2024-03-02T09:20:12;99332.75;;;7.60;51.79
68822;BME280;55834;50.870;4.606;2024-03-02T09:22:39;99326.03;;;7.75;51.45
68822;BME280;55834;50.870;4.606;2024-03-02T09:25:04;99334.75;;;8.41;49.45
68822;BME280;55834;50.870;4.606;2024-03-02T09:27:32;99334.59;;;7.80;50.67
68822;BME280;55834;50.870;4.606;2024-03-02T09:30:00;99337.88;;;8.08;49.99
68822;BME280;55834;50.870;4.606;2024-03-02T09:32:25;99329.16;;;7.62;50.55
68822;BME280;55834;50.870;4.606;2024-03-02T09:34:59;99326.44;;;7.64;51.71
68822;BME280;55834;50.870;4.606;2024-03-02T09:37:25;99335.28;;;7.85;49.61
68822;BME280;55834;50.870;4.606;2024-03-02T09:39:54;99327.97;;;8.35;48.95
68822;BME280;55834;50.870;4.606;2024-03-02T09:42:22;99319.47;;;8.08;49.79
68822;BME280;55834;50.870;4.606;2024-03-02T09:44:51;99320.44;;;8.06;48.76
68822;BME280;55834;50.870;4.606;2024-03-02T09:47:16;99319.69;;;8.02;49.91
68822;BME280;55834;50.870;4.606;2024-03-02T09:49:47;99309.94;;;8.48;49.31
68822;BME280;55834;50.870;4.606;2024-03-02T09:52:13;99315.31;;;8.86;48.71
68822;BME280;55834;50.870;4.606;2024-03-02T09:54:42;99300.19;;;9.29;47.10
68822;BME280;55834;50.870;4.606;2024-03-02T09:57:08;99302.00;;;9.66;46.68
68822;BME280;55834;50.870;4.606;2024-03-02T09:59:34;99296.91;;;9.44;45.95
68822;BME280;55834;50.870;4.606;2024-03-02T10:02:02;99289.13;;;8.42;47.74
68822;BME280;55834;50.870;4.606;2024-03-02T10:04:29;99291.13;;;8.97;48.34
68822;BME280;55834;50.870;4.606;2024-03-02T10:09:39;99280.78;;;9.69;47.39
68822;BME280;55834;50.870;4.606;2024-03-02T10:12:05;99291.78;;;9.97;46.91
68822;BME280;55834;50.870;4.606;2024-03-02T10:14:31;99278.78;;;9.75;46.03
68822;BME280;55834;50.870;4.606;2024-03-02T10:17:05;99287.41;;;9.40;47.27
68822;BME280;55834;50.870;4.606;2024-03-02T10:19:31;99288.34;;;9.39;46.38
68822;BME280;55834;50.870;4.606;2024-03-02T10:22:02;99288.31;;;9.20;47.11
68822;BME280;55834;50.870;4.606;2024-03-02T10:24:38;99301.00;;;9.31;46.50
68822;BME280;55834;50.870;4.606;2024-03-02T10:27:19;99294.19;;;9.46;47.05
68822;BME280;55834;50.870;4.606;2024-03-02T10:29:48;99301.00;;;9.31;47.36
68822;BME280;55834;50.870;4.606;2024-03-02T10:32:15;99296.25;;;9.58;47.59
68822;BME280;55834;50.870;4.606;2024-03-02T10:34:41;99297.41;;;9.53;47.54
68822;BME280;55834;50.870;4.606;2024-03-02T10:37:07;99294.94;;;9.86;45.38
68822;BME280;55834;50.870;4.606;2024-03-02T10:39:34;99293.09;;;9.31;47.12
68822;BME280;55834;50.870;4.606;2024-03-02T10:42:02;99287.56;;;9.92;46.80
68822;BME280;55834;50.870;4.606;2024-03-02T10:44:28;99288.22;;;10.15;44.85
68822;BME280;55834;50.870;4.606;2024-03-02T10:46:55;99277.44;;;10.02;45.45
68822;BME280;55834;50.870;4.606;2024-03-02T10:49:22;99266.91;;;9.66;45.10
68822;BME280;55834;50.870;4.606;2024-03-02T10:51:49;99272.25;;;9.45;46.27
68822;BME280;55834;50.870;4.606;2024-03-02T10:54:14;99283.31;;;8.95;47.25
68822;BME280;55834;50.870;4.606;2024-03-02T10:56:41;99285.34;;;8.89;46.26
68822;BME280;55834;50.870;4.606;2024-03-02T11:01:50;99278.22;;;9.30;48.01
68822;BME280;55834;50.870;4.606;2024-03-02T11:04:19;99273.66;;;9.71;46.39
68822;BME280;55834;50.870;4.606;2024-03-02T11:06:48;99265.53;;;9.76;45.64
68822;BME280;55834;50.870;4.606;2024-03-02T11:09:14;99258.59;;;10.10;45.47
68822;BME280;55834;50.870;4.606;2024-03-02T11:11:42;99270.53;;;10.00;45.95
68822;BME280;55834;50.870;4.606;2024-03-02T11:14:14;99254.50;;;10.56;44.90
68822;BME280;55834;50.870;4.606;2024-03-02T11:16:41;99255.25;;;10.41;44.50
68822;BME280;55834;50.870;4.606;2024-03-02T11:19:12;99241.06;;;10.44;43.81
68822;BME280;55834;50.870;4.606;2024-03-02T11:21:38;99234.69;;;9.95;45.39
68822;BME280;55834;50.870;4.606;2024-03-02T11:24:28;99230.25;;;9.61;46.15
68822;BME280;55834;50.870;4.606;2024-03-02T11:26:59;99223.53;;;9.90;45.58
68822;BME280;55834;50.870;4.606;2024-03-02T11:32:14;99222.75;;;10.23;44.07
68822;BME280;55834;50.870;4.606;2024-03-02T11:34:42;99224.94;;;10.32;44.58
68822;BME280;55834;50.870;4.606;2024-03-02T11:37:12;99224.91;;;10.67;44.34
68822;BME280;55834;50.870;4.606;2024-03-02T11:39:42;99225.59;;;10.71;43.87
68822;BME280;55834;50.870;4.606;2024-03-02T11:42:08;99213.75;;;9.92;45.78
68822;BME280;55834;50.870;4.606;2024-03-02T11:44:37;99210.75;;;10.17;45.17
68822;BME280;55834;50.870;4.606;2024-03-02T11:47:06;99204.97;;;10.61;44.37
68822;BME280;55834;50.870;4.606;2024-03-02T11:49:46;99213.81;;;10.94;43.61
68822;BME280;55834;50.870;4.606;2024-03-02T11:52:14;99210.78;;;10.33;43.16
68822;BME280;55834;50.870;4.606;2024-03-02T11:54:44;99214.31;;;10.16;44.41
68822;BME280;55834;50.870;4.606;2024-03-02T11:57:20;99207.28;;;10.68;44.77
68822;BME280;55834;50.870;4.606;2024-03-02T11:59:47;99202.28;;;10.79;44.60
68822;BME280;55834;50.870;4.606;2024-03-02T12:02:16;99191.28;;;10.71;44.19
68822;BME280;55834;50.870;4.606;2024-03-02T12:04:43;99184.63;;;10.64;43.56
68822;BME280;55834;50.870;4.606;2024-03-02T12:07:10;99179.22;;;10.32;44.28
68822;BME280;55834;50.870;4.606;2024-03-02T12:09:35;99179.38;;;10.46;45.12
68822;BME280;55834;50.870;4.606;2024-03-02T12:12:05;99183.06;;;10.93;44.09
68822;BME280;55834;50.870;4.606;2024-03-02T12:14:31;99182.94;;;10.78;43.72
68822;BME280;55834;50.870;4.606;2024-03-02T12:16:57;99184.97;;;10.73;43.45
68822;BME280;55834;50.870;4.606;2024-03-02T12:19:24;99169.13;;;10.57;44.45
68822;BME280;55834;50.870;4.606;2024-03-02T12:21:51;99167.63;;;9.84;45.63
68822;BME280;55834;50.870;4.606;2024-03-02T12:24:16;99166.66;;;10.70;45.20
68822;BME280;55834;50.870;4.606;2024-03-02T12:26:42;99161.50;;;11.16;43.62
68822;BME280;55834;50.870;4.606;2024-03-02T12:29:07;99160.59;;;10.86;44.62
68822;BME280;55834;50.870;4.606;2024-03-02T12:31:34;99160.34;;;11.06;43.95
68822;BME280;55834;50.870;4.606;2024-03-02T12:33:59;99157.28;;;10.65;43.76
68822;BME280;55834;50.870;4.606;2024-03-02T12:36:25;99153.44;;;11.03;43.72
68822;BME280;55834;50.870;4.606;2024-03-02T12:38:53;99154.47;;;10.34;44.81
68822;BME280;55834;50.870;4.606;2024-03-02T12:41:18;99154.75;;;10.79;44.54
68822;BME280;55834;50.870;4.606;2024-03-02T12:43:43;99153.91;;;10.78;43.41
68822;BME280;55834;50.870;4.606;2024-03-02T12:46:09;99158.09;;;11.14;42.63
68822;BME280;55834;50.870;4.606;2024-03-02T12:48:35;99159.81;;;10.99;43.58
68822;BME280;55834;50.870;4.606;2024-03-02T12:51:01;99155.56;;;10.30;45.19
68822;BME280;55834;50.870;4.606;2024-03-02T12:53:26;99146.78;;;10.80;44.48
68822;BME280;55834;50.870;4.606;2024-03-02T12:55:52;99134.31;;;11.14;43.50
68822;BME280;55834;50.870;4.606;2024-03-02T12:58:19;99147.44;;;10.84;44.03
68822;BME280;55834;50.870;4.606;2024-03-02T13:00:46;99136.75;;;11.49;42.52
68822;BME280;55834;50.870;4.606;2024-03-02T13:03:11;99134.59;;;11.71;41.82
68822;BME280;55834;50.870;4.606;2024-03-02T13:05:37;99133.09;;;11.67;42.00
68822;BME280;55834;50.870;4.606;2024-03-02T13:08:02;99124.50;;;12.08;41.53
68822;BME280;55834;50.870;4.606;2024-03-02T13:10:29;99120.84;;;10.55;44.11
68822;BME280;55834;50.870;4.606;2024-03-02T13:12:56;99108.69;;;11.32;43.09
68822;BME280;55834;50.870;4.606;2024-03-02T13:15:22;99109.00;;;11.42;43.19